createdAt,value
2022-12-08T00:00:28.660Z,986.88
2022-12-08T00:01:28.654Z,986.93
2022-12-08T00:02:28.803Z,986.87
2022-12-08T00:03:28.763Z,986.85
2022-12-08T00:04:28.662Z,986.81
2022-12-08T00:05:28.618Z,986.81
2022-12-08T00:06:28.615Z,986.72
2022-12-08T00:07:28.610Z,986.76
2022-12-08T00:08:28.682Z,986.78
2022-12-08T00:09:32.060Z,986.71
2022-12-08T00:10:50.311Z,986.72
2022-12-08T00:11:30.577Z,986.69
2022-12-08T00:12:28.566Z,986.70
2022-12-08T00:13:28.563Z,986.74
2022-12-08T00:14:28.581Z,986.72
2022-12-08T00:15:28.548Z,986.63
2022-12-08T00:16:28.591Z,986.62
2022-12-08T00:17:28.537Z,986.61
2022-12-08T00:18:28.518Z,986.51
2022-12-08T00:19:28.537Z,986.61
2022-12-08T00:20:28.509Z,986.56
2022-12-08T00:21:28.500Z,986.61
2022-12-08T00:22:28.503Z,986.61
2022-12-08T00:23:28.484Z,986.57
2022-12-08T00:24:28.505Z,986.59
2022-12-08T00:25:28.468Z,986.59
2022-12-08T00:26:28.459Z,986.52
2022-12-08T00:27:28.458Z,986.54
2022-12-08T00:28:28.441Z,986.61
2022-12-08T00:29:28.471Z,986.53
2022-12-08T00:30:28.425Z,986.54
2022-12-08T00:31:28.450Z,986.53
2022-12-08T00:32:28.412Z,986.50
2022-12-08T00:33:28.404Z,986.58
2022-12-08T00:34:28.427Z,986.61
2022-12-08T00:35:28.385Z,986.56
2022-12-08T00:36:28.376Z,986.61
2022-12-08T00:37:28.372Z,986.50
2022-12-08T00:38:28.369Z,986.56
2022-12-08T00:39:28.378Z,986.54
2022-12-08T00:40:28.346Z,986.52
2022-12-08T00:41:28.339Z,986.52
2022-12-08T00:42:28.333Z,986.53
2022-12-08T00:43:28.321Z,986.49
2022-12-08T00:44:28.339Z,986.51
2022-12-08T00:45:28.382Z,986.47
2022-12-08T00:46:28.341Z,986.46
2022-12-08T00:47:28.287Z,986.48
2022-12-08T00:48:28.283Z,986.43
2022-12-08T00:49:28.305Z,986.38
2022-12-08T00:50:28.267Z,986.43
2022-12-08T00:51:28.260Z,986.42
2022-12-08T00:52:28.254Z,986.40
2022-12-08T00:53:28.249Z,986.29
2022-12-08T00:54:28.281Z,986.32
2022-12-08T00:55:28.252Z,986.31
2022-12-08T00:56:28.210Z,986.35
2022-12-08T00:57:28.207Z,986.29
2022-12-08T00:58:28.202Z,986.37
2022-12-08T00:59:28.222Z,986.30
2022-12-08T01:00:28.200Z,986.31
2022-12-08T01:01:28.225Z,986.24
2022-12-08T01:02:28.175Z,986.27
2022-12-08T01:03:28.227Z,986.30
2022-12-08T01:04:28.154Z,986.30
2022-12-08T01:05:28.172Z,986.29
2022-12-08T01:06:28.133Z,986.34
2022-12-08T01:07:28.127Z,986.35
2022-12-08T01:08:28.164Z,986.27
2022-12-08T01:09:28.114Z,986.21
2022-12-08T01:10:28.135Z,986.26
2022-12-08T01:11:28.101Z,986.32
2022-12-08T01:12:28.088Z,986.27
2022-12-08T01:13:28.083Z,986.32
2022-12-08T01:14:28.079Z,986.27
2022-12-08T01:15:28.097Z,986.23
2022-12-08T01:16:28.086Z,986.23
2022-12-08T01:17:28.055Z,986.28
2022-12-08T01:18:28.047Z,986.29
2022-12-08T01:19:28.038Z,986.22
2022-12-08T01:20:28.053Z,986.29
2022-12-08T01:21:28.020Z,986.31
2022-12-08T01:22:28.011Z,986.29
2022-12-08T01:23:28.003Z,986.29
2022-12-08T01:24:27.996Z,986.35
2022-12-08T01:25:28.016Z,986.34
2022-12-08T01:26:27.982Z,986.38
2022-12-08T01:27:27.983Z,986.36
2022-12-08T01:28:27.971Z,986.35
2022-12-08T01:29:27.962Z,986.38
2022-12-08T01:30:28.044Z,986.37
2022-12-08T01:31:27.982Z,986.27
2022-12-08T01:32:27.941Z,986.31
2022-12-08T01:33:27.934Z,986.37
2022-12-08T01:34:27.931Z,986.33
2022-12-08T01:35:27.951Z,986.32
2022-12-08T01:36:27.904Z,986.38
2022-12-08T01:37:27.895Z,986.39
2022-12-08T01:38:27.893Z,986.39
2022-12-08T01:39:27.883Z,986.47
2022-12-08T01:40:27.903Z,986.41
2022-12-08T01:41:27.876Z,986.48
2022-12-08T01:42:27.927Z,986.43
2022-12-08T01:43:27.852Z,986.41
2022-12-08T01:44:27.846Z,986.49
2022-12-08T01:45:27.865Z,986.40
2022-12-08T01:46:27.931Z,986.34
2022-12-08T01:47:27.827Z,986.39
2022-12-08T01:48:27.840Z,986.47
2022-12-08T01:49:27.827Z,986.41
2022-12-08T01:50:28.827Z,986.39
2022-12-08T01:51:27.799Z,986.46
2022-12-08T01:52:27.789Z,986.48
2022-12-08T01:53:27.785Z,986.47
2022-12-08T01:54:27.776Z,986.40
2022-12-08T01:55:27.790Z,986.40
2022-12-08T01:56:27.753Z,986.41
2022-12-08T01:57:27.747Z,986.27
2022-12-08T01:58:27.742Z,986.41
2022-12-08T01:59:27.731Z,986.30
2022-12-08T02:00:27.751Z,986.37
2022-12-08T02:01:27.750Z,986.34
2022-12-08T02:02:27.771Z,986.31
2022-12-08T02:03:27.699Z,986.28
2022-12-08T02:04:27.689Z,986.31
2022-12-08T02:05:27.706Z,986.36
2022-12-08T02:06:27.673Z,986.32
2022-12-08T02:07:28.673Z,986.31
2022-12-08T02:08:27.759Z,986.22
2022-12-08T02:09:27.663Z,986.26
2022-12-08T02:10:27.685Z,986.24
2022-12-08T02:11:27.644Z,986.20
2022-12-08T02:12:27.629Z,986.20
2022-12-08T02:13:27.619Z,986.21
2022-12-08T02:14:27.622Z,986.19
2022-12-08T02:15:27.634Z,986.17
2022-12-08T02:16:27.626Z,986.17
2022-12-08T02:17:27.597Z,986.13
2022-12-08T02:18:27.589Z,986.19
2022-12-08T02:19:31.630Z,986.08
2022-12-08T02:20:28.598Z,986.08
2022-12-08T02:21:27.570Z,986.07
2022-12-08T02:22:27.554Z,986.17
2022-12-08T02:23:27.553Z,986.07
2022-12-08T02:24:27.543Z,986.11
2022-12-08T02:25:27.563Z,986.05
2022-12-08T02:26:27.537Z,986.08
2022-12-08T02:27:27.521Z,986.15
2022-12-08T02:28:27.514Z,986.11
2022-12-08T02:29:27.502Z,986.10
2022-12-08T02:30:27.585Z,986.11
2022-12-08T02:31:27.559Z,986.03
2022-12-08T02:32:27.486Z,986.08
2022-12-08T02:33:27.473Z,986.09
2022-12-08T02:34:27.466Z,985.96
2022-12-08T02:35:27.469Z,986.01
2022-12-08T02:36:27.473Z,985.96
2022-12-08T02:37:27.439Z,985.98
2022-12-08T02:38:27.433Z,985.97
2022-12-08T02:39:27.420Z,986.00
2022-12-08T02:40:27.417Z,985.99
2022-12-08T02:41:27.434Z,986.00
2022-12-08T02:42:27.406Z,985.98
2022-12-08T02:43:27.388Z,985.98
2022-12-08T02:44:27.380Z,985.99
2022-12-08T02:45:27.374Z,985.95
2022-12-08T02:46:27.458Z,985.97
2022-12-08T02:47:27.359Z,985.95
2022-12-08T02:48:27.360Z,985.97
2022-12-08T02:49:27.344Z,985.91
2022-12-08T02:50:27.334Z,985.95
2022-12-08T02:51:27.362Z,985.99
2022-12-08T02:52:27.317Z,985.86
2022-12-08T02:53:27.308Z,985.88
2022-12-08T02:54:27.309Z,985.88
2022-12-08T02:55:27.297Z,985.87
2022-12-08T02:56:27.315Z,985.90
2022-12-08T02:57:27.279Z,985.92
2022-12-08T02:58:27.277Z,985.90
2022-12-08T02:59:27.266Z,985.96
2022-12-08T03:00:27.261Z,985.89
2022-12-08T03:01:27.324Z,985.89
2022-12-08T03:02:27.316Z,985.86
2022-12-08T03:03:27.236Z,985.87
2022-12-08T03:04:27.225Z,985.89
2022-12-08T03:05:27.222Z,985.82
2022-12-08T03:06:27.213Z,985.80
2022-12-08T03:07:27.235Z,985.80
2022-12-08T03:08:27.285Z,985.77
2022-12-08T03:09:27.193Z,985.81
2022-12-08T03:10:27.185Z,985.82
2022-12-08T03:11:27.171Z,985.71
2022-12-08T03:12:27.185Z,985.68
2022-12-08T03:13:27.150Z,985.72
2022-12-08T03:14:27.151Z,985.70
2022-12-08T03:15:27.168Z,985.66
2022-12-08T03:16:27.202Z,985.69
2022-12-08T03:17:27.152Z,985.70
2022-12-08T03:18:27.113Z,985.68
2022-12-08T03:19:27.111Z,985.66
2022-12-08T03:20:27.100Z,985.68
2022-12-08T03:21:27.097Z,985.67
2022-12-08T03:22:27.108Z,985.62
2022-12-08T03:23:27.081Z,985.66
2022-12-08T03:24:27.073Z,985.63
2022-12-08T03:25:27.071Z,985.69
2022-12-08T03:26:27.057Z,985.66
2022-12-08T03:27:27.078Z,985.66
2022-12-08T03:28:27.046Z,985.61
2022-12-08T03:29:27.027Z,985.57
2022-12-08T03:30:27.027Z,985.63
2022-12-08T03:31:27.046Z,985.57
2022-12-08T03:32:27.035Z,985.57
2022-12-08T03:33:27.000Z,985.52
2022-12-08T03:34:26.990Z,985.53
2022-12-08T03:35:26.987Z,985.48
2022-12-08T03:36:26.972Z,985.45
2022-12-08T03:37:26.992Z,985.44
2022-12-08T03:38:26.956Z,985.43
2022-12-08T03:39:26.948Z,985.46
2022-12-08T03:40:26.945Z,985.50
2022-12-08T03:41:26.932Z,985.47
2022-12-08T03:42:26.949Z,985.43
2022-12-08T03:43:26.928Z,985.41
2022-12-08T03:44:26.919Z,985.47
2022-12-08T03:45:26.902Z,985.40
2022-12-08T03:47:11.407Z,985.41
2022-12-08T03:48:11.406Z,985.41
2022-12-08T03:49:11.401Z,985.46
2022-12-08T03:50:11.394Z,985.43
2022-12-08T03:51:11.382Z,985.41
2022-12-08T03:52:11.395Z,985.40
2022-12-08T03:53:11.366Z,985.32
2022-12-08T03:54:11.356Z,985.37
2022-12-08T03:55:11.350Z,985.36
2022-12-08T03:56:11.342Z,985.37
2022-12-08T03:57:11.355Z,985.34
2022-12-08T03:58:11.322Z,985.30
2022-12-08T03:59:11.319Z,985.31
2022-12-08T04:00:11.310Z,985.33
2022-12-08T04:01:11.301Z,985.30
2022-12-08T04:02:11.362Z,985.36
2022-12-08T04:03:12.469Z,985.35
2022-12-08T04:04:12.411Z,985.33
2022-12-08T04:05:12.416Z,985.34
2022-12-08T04:06:12.398Z,985.32
2022-12-08T04:07:12.423Z,985.24
2022-12-08T04:08:12.469Z,985.28
2022-12-08T04:09:12.366Z,985.28
2022-12-08T04:10:13.368Z,985.22
2022-12-08T04:11:12.366Z,985.29
2022-12-08T04:12:12.348Z,985.29
2022-12-08T04:13:12.372Z,985.19
2022-12-08T04:14:12.344Z,985.22
2022-12-08T04:15:12.319Z,985.15
2022-12-08T04:16:12.350Z,985.23
2022-12-08T04:17:12.315Z,985.19
2022-12-08T04:18:12.334Z,985.22
2022-12-08T04:19:12.293Z,985.19
2022-12-08T04:20:12.282Z,985.08
2022-12-08T04:21:12.275Z,985.16
2022-12-08T04:22:12.261Z,985.16
2022-12-08T04:23:13.275Z,985.01
2022-12-08T04:24:12.256Z,985.04
2022-12-08T04:25:12.243Z,984.98
2022-12-08T04:26:12.231Z,985.00
2022-12-08T04:27:12.220Z,984.98
2022-12-08T04:28:12.249Z,984.96
2022-12-08T04:29:12.203Z,985.00
2022-12-08T04:30:12.203Z,984.96
2022-12-08T04:31:12.209Z,984.91
2022-12-08T04:32:12.185Z,984.99
2022-12-08T04:33:12.204Z,984.98
2022-12-08T04:34:12.170Z,984.93
2022-12-08T04:35:12.160Z,984.99
2022-12-08T04:36:12.151Z,984.92
2022-12-08T04:37:12.141Z,984.96
2022-12-08T04:38:12.160Z,984.93
2022-12-08T04:39:12.124Z,984.94
2022-12-08T04:40:12.120Z,984.93
2022-12-08T04:41:12.115Z,984.90
2022-12-08T04:42:12.101Z,984.82
2022-12-08T04:43:12.128Z,984.92
2022-12-08T04:44:12.089Z,984.93
2022-12-08T04:45:12.088Z,984.89
2022-12-08T04:46:12.151Z,984.89
2022-12-08T04:47:12.136Z,984.83
2022-12-08T04:48:12.085Z,984.85
2022-12-08T04:49:12.052Z,984.87
2022-12-08T04:50:12.043Z,984.87
2022-12-08T04:51:12.041Z,984.86
2022-12-08T04:52:12.025Z,984.86
2022-12-08T04:53:12.050Z,984.89
2022-12-08T04:54:12.010Z,984.82
2022-12-08T04:55:12.004Z,984.84
2022-12-08T04:56:12.005Z,984.83
2022-12-08T04:57:11.987Z,984.87
2022-12-08T04:58:12.004Z,984.85
2022-12-08T04:59:11.968Z,984.80
2022-12-08T05:00:11.961Z,984.82
2022-12-08T05:01:12.021Z,984.83
2022-12-08T05:02:12.045Z,984.84
2022-12-08T05:03:11.965Z,984.83
2022-12-08T05:04:11.926Z,984.71
2022-12-08T05:05:11.918Z,984.75
2022-12-08T05:06:11.918Z,984.74
2022-12-08T05:07:11.902Z,984.74
2022-12-08T05:08:11.997Z,984.80
2022-12-08T05:09:11.892Z,984.79
2022-12-08T05:10:11.880Z,984.74
2022-12-08T05:11:11.878Z,984.76
2022-12-08T05:12:11.865Z,984.75
2022-12-08T05:13:11.889Z,984.74
2022-12-08T05:14:11.855Z,984.77
2022-12-08T05:15:11.844Z,984.71
2022-12-08T05:16:11.885Z,984.78
2022-12-08T05:17:11.829Z,984.74
2022-12-08T05:18:11.849Z,984.75
2022-12-08T05:19:11.813Z,984.77
2022-12-08T05:20:11.802Z,984.74
2022-12-08T05:21:11.799Z,984.80
2022-12-08T05:22:11.793Z,984.74
2022-12-08T05:23:11.806Z,984.73
2022-12-08T05:24:11.784Z,984.73
2022-12-08T05:25:11.761Z,984.77
2022-12-08T05:26:11.761Z,984.78
2022-12-08T05:27:11.756Z,984.71
2022-12-08T05:29:13.733Z,984.71
2022-12-08T05:30:11.733Z,984.72
2022-12-08T05:31:11.760Z,984.73
2022-12-08T05:32:11.708Z,984.70
2022-12-08T05:33:11.728Z,984.76
2022-12-08T05:34:11.691Z,984.74
2022-12-08T05:35:11.688Z,984.73
2022-12-08T05:36:11.683Z,984.71
2022-12-08T05:37:11.673Z,984.65
2022-12-08T05:38:11.689Z,984.62
2022-12-08T05:39:11.657Z,984.73
2022-12-08T05:40:11.647Z,984.72
2022-12-08T05:41:11.645Z,984.64
2022-12-08T05:42:11.628Z,984.63
2022-12-08T05:43:11.653Z,984.64
2022-12-08T05:44:11.607Z,984.61
2022-12-08T05:45:12.603Z,984.60
2022-12-08T05:46:11.712Z,984.57
2022-12-08T05:47:11.594Z,984.60
2022-12-08T05:48:11.615Z,984.64
2022-12-08T05:49:11.589Z,984.66
2022-12-08T05:50:11.573Z,984.63
2022-12-08T05:51:11.558Z,984.68
2022-12-08T05:52:11.555Z,984.68
2022-12-08T05:53:11.576Z,984.66
2022-12-08T05:54:11.542Z,984.66
2022-12-08T05:55:11.531Z,984.62
2022-12-08T05:56:12.332Z,984.59
2022-12-08T05:57:12.540Z,984.60
2022-12-08T05:58:11.541Z,984.62
2022-12-08T05:59:11.502Z,984.62
2022-12-08T06:00:11.506Z,984.57
2022-12-08T06:01:11.490Z,984.60
2022-12-08T06:02:11.627Z,984.60
2022-12-08T06:03:11.570Z,984.65
2022-12-08T06:04:11.468Z,984.61
2022-12-08T06:05:11.455Z,984.58
2022-12-08T06:06:11.449Z,984.67
2022-12-08T06:07:15.914Z,984.59
2022-12-08T06:08:12.611Z,984.64
2022-12-08T06:09:11.429Z,984.58
2022-12-08T06:10:11.424Z,984.53
2022-12-08T06:11:11.417Z,984.58
2022-12-08T06:12:11.406Z,984.57
2022-12-08T06:13:11.418Z,984.51
2022-12-08T06:14:11.388Z,984.58
2022-12-08T06:15:11.381Z,984.56
2022-12-08T06:16:11.392Z,984.51
2022-12-08T06:17:11.434Z,984.57
2022-12-08T06:18:11.400Z,984.52
2022-12-08T06:19:11.346Z,984.49
2022-12-08T06:20:11.344Z,984.49
2022-12-08T06:21:11.335Z,984.52
2022-12-08T06:22:11.325Z,984.53
2022-12-08T06:23:11.344Z,984.56
2022-12-08T06:24:11.465Z,984.56
2022-12-08T06:25:11.302Z,984.55
2022-12-08T06:26:11.293Z,984.50
2022-12-08T06:27:11.286Z,984.51
2022-12-08T06:28:11.308Z,984.48
2022-12-08T06:29:11.274Z,984.50
2022-12-08T06:30:11.260Z,984.47
2022-12-08T06:31:11.262Z,984.40
2022-12-08T06:32:11.306Z,984.45
2022-12-08T06:33:11.238Z,984.47
2022-12-08T06:34:11.259Z,984.47
2022-12-08T06:35:11.221Z,984.46
2022-12-08T06:36:11.218Z,984.47
2022-12-08T06:37:11.205Z,984.49
2022-12-08T06:38:11.199Z,984.47
2022-12-08T06:39:11.213Z,984.51
2022-12-08T06:40:11.184Z,984.46
2022-12-08T06:41:11.174Z,984.43
2022-12-08T06:42:11.166Z,984.39
2022-12-08T06:43:11.160Z,984.46
2022-12-08T06:44:11.172Z,984.42
2022-12-08T06:45:11.140Z,984.42
2022-12-08T06:46:11.225Z,984.47
2022-12-08T06:47:11.140Z,984.43
2022-12-08T06:48:11.116Z,984.45
2022-12-08T06:49:11.137Z,984.51
2022-12-08T06:50:11.108Z,984.43
2022-12-08T06:51:11.091Z,984.43
2022-12-08T06:52:11.084Z,984.51
2022-12-08T06:53:11.073Z,984.49
2022-12-08T06:54:11.100Z,984.43
2022-12-08T06:55:20.511Z,984.48
2022-12-08T06:56:12.056Z,984.53
2022-12-08T06:57:11.045Z,984.55
2022-12-08T06:58:11.042Z,984.51
2022-12-08T06:59:11.059Z,984.51
2022-12-08T07:00:11.019Z,984.54
2022-12-08T07:01:11.059Z,984.51
2022-12-08T07:02:11.075Z,984.45
2022-12-08T07:03:11.001Z,984.47
2022-12-08T07:04:11.015Z,984.40
2022-12-08T07:05:10.985Z,984.48
2022-12-08T07:06:10.977Z,984.39
2022-12-08T07:07:10.969Z,984.41
2022-12-08T07:08:11.033Z,984.41
2022-12-08T07:09:10.977Z,984.51
2022-12-08T07:10:10.944Z,984.44
2022-12-08T07:11:12.378Z,984.45
2022-12-08T07:12:10.926Z,984.47
2022-12-08T07:13:10.921Z,984.44
2022-12-08T07:14:10.946Z,984.44
2022-12-08T07:15:10.911Z,984.45
2022-12-08T07:16:10.902Z,984.49
2022-12-08T07:17:10.999Z,984.47
2022-12-08T07:18:10.883Z,984.44
2022-12-08T07:19:10.902Z,984.47
2022-12-08T07:20:10.879Z,984.49
2022-12-08T07:21:10.852Z,984.48
2022-12-08T07:22:10.850Z,984.48
2022-12-08T07:23:10.841Z,984.44
2022-12-08T07:24:10.871Z,984.53
2022-12-08T07:25:10.824Z,984.52
2022-12-08T07:26:10.816Z,984.56
2022-12-08T07:27:10.805Z,984.51
2022-12-08T07:28:10.806Z,984.53
2022-12-08T07:29:10.799Z,984.54
2022-12-08T07:30:10.815Z,984.56
2022-12-08T07:31:10.843Z,984.54
2022-12-08T07:32:10.780Z,984.47
2022-12-08T07:33:10.764Z,984.51
2022-12-08T07:34:11.758Z,984.60
2022-12-08T07:35:10.774Z,984.55
2022-12-08T07:36:10.746Z,984.51
2022-12-08T07:37:10.767Z,984.57
2022-12-08T07:38:10.731Z,984.52
2022-12-08T07:39:10.719Z,984.64
2022-12-08T07:40:10.791Z,984.62
2022-12-08T07:41:10.702Z,984.56
2022-12-08T07:42:10.698Z,984.60
2022-12-08T07:43:10.687Z,984.62
2022-12-08T07:44:10.681Z,984.61
2022-12-08T07:45:10.698Z,984.65
2022-12-08T07:46:10.674Z,984.66
2022-12-08T07:47:10.657Z,984.57
2022-12-08T07:48:10.652Z,984.62
2022-12-08T07:49:10.642Z,984.58
2022-12-08T07:50:10.658Z,984.60
2022-12-08T07:51:10.629Z,984.55
2022-12-08T07:52:10.617Z,984.58
2022-12-08T07:53:10.608Z,984.53
2022-12-08T07:54:10.608Z,984.53
2022-12-08T07:55:10.625Z,984.52
2022-12-08T07:56:10.587Z,984.51
2022-12-08T07:57:10.579Z,984.51
2022-12-08T07:58:10.571Z,984.51
2022-12-08T07:59:11.562Z,984.50
2022-12-08T08:00:10.583Z,984.54
2022-12-08T08:01:10.720Z,984.55
2022-12-08T08:02:24.135Z,984.52
2022-12-08T08:03:12.690Z,984.49
2022-12-08T08:04:10.541Z,984.45
2022-12-08T08:05:10.584Z,984.42
2022-12-08T08:06:10.509Z,984.56
2022-12-08T08:07:10.499Z,984.48
2022-12-08T08:08:10.542Z,984.49
2022-12-08T08:09:10.481Z,984.54
2022-12-08T08:10:10.498Z,984.46
2022-12-08T08:11:19.021Z,984.47
2022-12-08T08:12:30.806Z,984.47
2022-12-08T08:13:12.459Z,984.43
2022-12-08T08:14:10.441Z,984.43
2022-12-08T08:15:10.467Z,984.41
2022-12-08T08:16:10.584Z,984.37
2022-12-08T08:17:10.585Z,984.39
2022-12-08T08:18:10.419Z,984.40
2022-12-08T08:19:10.406Z,984.37
2022-12-08T08:20:10.430Z,984.41
2022-12-08T08:22:12.405Z,984.34
2022-12-08T08:23:10.379Z,984.36
2022-12-08T08:24:10.370Z,984.39
2022-12-08T08:25:10.394Z,984.36
2022-12-08T08:26:10.351Z,984.36
2022-12-08T08:27:10.348Z,984.34
2022-12-08T08:28:10.351Z,984.28
2022-12-08T08:29:10.326Z,984.30
2022-12-08T08:30:15.247Z,984.35
2022-12-08T08:31:12.374Z,984.33
2022-12-08T08:32:10.308Z,984.31
2022-12-08T08:33:10.297Z,984.28
2022-12-08T08:34:10.295Z,984.32
2022-12-08T08:35:10.316Z,984.31
2022-12-08T08:36:10.284Z,984.36
2022-12-08T08:37:10.362Z,984.30
2022-12-08T08:38:10.263Z,984.39
2022-12-08T08:39:10.255Z,984.39
2022-12-08T08:40:10.278Z,984.34
2022-12-08T08:41:10.246Z,984.44
2022-12-08T08:42:10.252Z,984.43
2022-12-08T08:43:10.228Z,984.40
2022-12-08T08:44:10.229Z,984.37
2022-12-08T08:45:10.237Z,984.40
2022-12-08T08:46:10.298Z,984.44
2022-12-08T08:47:10.197Z,984.41
2022-12-08T08:48:10.194Z,984.45
2022-12-08T08:49:10.180Z,984.42
2022-12-08T08:50:10.209Z,984.48
2022-12-08T08:51:10.178Z,984.42
2022-12-08T08:52:10.157Z,984.49
2022-12-08T08:53:10.153Z,984.47
2022-12-08T08:54:10.148Z,984.52
2022-12-08T08:55:10.165Z,984.48
2022-12-08T08:56:10.130Z,984.51
2022-12-08T08:57:10.109Z,984.42
2022-12-08T08:58:11.129Z,984.48
2022-12-08T08:59:10.113Z,984.44
2022-12-08T09:00:10.194Z,984.41
2022-12-08T09:01:11.153Z,984.46
2022-12-08T09:02:10.200Z,984.42
2022-12-08T09:03:10.082Z,984.47
2022-12-08T09:04:10.131Z,984.39
2022-12-08T09:05:10.184Z,984.49
2022-12-08T09:06:10.117Z,984.48
2022-12-08T09:07:10.047Z,984.49
2022-12-08T09:08:10.054Z,984.50
2022-12-08T09:09:10.038Z,984.47
2022-12-08T09:10:10.054Z,984.45
2022-12-08T09:11:10.018Z,984.40
2022-12-08T09:12:10.010Z,984.42
2022-12-08T09:13:10.003Z,984.42
2022-12-08T09:14:09.998Z,984.39
2022-12-08T09:15:10.016Z,984.43
2022-12-08T09:16:10.050Z,984.39
2022-12-08T09:17:09.975Z,984.37
2022-12-08T09:18:09.971Z,984.39
2022-12-08T09:19:09.956Z,984.38
2022-12-08T09:20:09.976Z,984.42
2022-12-08T09:21:09.943Z,984.45
2022-12-08T09:22:09.933Z,984.46
2022-12-08T09:23:09.924Z,984.45
2022-12-08T09:24:09.922Z,984.38
2022-12-08T09:25:09.949Z,984.46
2022-12-08T09:26:09.899Z,984.41
2022-12-08T09:27:09.894Z,984.35
2022-12-08T09:28:09.889Z,984.39
2022-12-08T09:29:09.879Z,984.35
2022-12-08T09:30:09.908Z,984.36
2022-12-08T09:31:10.049Z,984.36
2022-12-08T09:32:09.854Z,984.34
2022-12-08T09:33:09.843Z,984.35
2022-12-08T09:34:09.838Z,984.38
2022-12-08T09:35:09.866Z,984.37
2022-12-08T09:36:09.824Z,984.34
2022-12-08T09:37:09.813Z,984.37
2022-12-08T09:38:09.804Z,984.34
2022-12-08T09:39:09.799Z,984.41
2022-12-08T09:40:09.823Z,984.35
2022-12-08T09:41:09.784Z,984.35
2022-12-08T09:42:09.770Z,984.33
2022-12-08T09:43:09.775Z,984.31
2022-12-08T09:44:09.761Z,984.25
2022-12-08T09:45:09.749Z,984.28
2022-12-08T09:46:09.825Z,984.24
2022-12-08T09:47:09.765Z,984.16
2022-12-08T09:48:09.734Z,984.24
2022-12-08T09:49:09.722Z,984.19
2022-12-08T09:50:09.714Z,984.15
2022-12-08T09:51:09.730Z,984.20
2022-12-08T09:52:09.684Z,984.19
2022-12-08T09:53:10.689Z,984.22
2022-12-08T09:54:09.680Z,984.19
2022-12-08T09:55:09.676Z,984.15
2022-12-08T09:56:09.692Z,984.15
2022-12-08T09:57:09.660Z,984.14
2022-12-08T09:58:09.672Z,984.11
2022-12-08T09:59:09.644Z,984.13
2022-12-08T10:00:09.635Z,984.08
2022-12-08T10:01:09.643Z,984.07
2022-12-08T10:02:10.709Z,984.10
2022-12-08T10:03:13.646Z,984.19
2022-12-08T10:04:11.605Z,984.09
2022-12-08T10:05:09.640Z,984.06
2022-12-08T10:06:09.607Z,984.11
2022-12-08T10:07:10.585Z,984.11
2022-12-08T10:08:09.731Z,984.10
2022-12-08T10:09:12.441Z,984.07
2022-12-08T10:10:10.559Z,984.12
2022-12-08T10:11:09.577Z,984.12
2022-12-08T10:12:09.546Z,984.03
2022-12-08T10:13:09.539Z,984.11
2022-12-08T10:14:09.533Z,984.09
2022-12-08T10:15:09.525Z,984.11
2022-12-08T10:16:11.086Z,984.03
2022-12-08T10:17:09.562Z,984.03
2022-12-08T10:18:09.499Z,983.95
2022-12-08T10:19:10.493Z,983.93
2022-12-08T10:20:09.485Z,983.92
2022-12-08T10:21:09.509Z,983.94
2022-12-08T10:22:09.467Z,984.03
2022-12-08T10:23:09.469Z,983.99
2022-12-08T10:24:09.457Z,984.00
2022-12-08T10:25:09.448Z,984.02
2022-12-08T10:26:09.465Z,983.96
2022-12-08T10:27:09.428Z,983.96
2022-12-08T10:28:09.421Z,983.99
2022-12-08T10:29:09.416Z,983.95
2022-12-08T10:30:09.411Z,984.00
2022-12-08T10:31:09.428Z,983.95
2022-12-08T10:32:09.420Z,983.91
2022-12-08T10:33:09.388Z,983.88
2022-12-08T10:34:09.377Z,983.95
2022-12-08T10:35:09.376Z,983.88
2022-12-08T10:36:09.358Z,983.86
2022-12-08T10:37:09.374Z,983.91
2022-12-08T10:38:09.343Z,983.96
2022-12-08T10:39:09.350Z,983.87
2022-12-08T10:40:09.337Z,983.90
2022-12-08T10:41:09.316Z,983.83
2022-12-08T10:42:09.336Z,983.85
2022-12-08T10:43:09.298Z,983.86
2022-12-08T10:44:09.292Z,983.82
2022-12-08T10:45:09.294Z,983.78
2022-12-08T10:46:09.383Z,983.89
2022-12-08T10:47:09.420Z,983.89
2022-12-08T10:48:09.261Z,983.91
2022-12-08T10:49:09.260Z,983.86
2022-12-08T10:50:09.252Z,983.84
2022-12-08T10:51:09.240Z,983.82
2022-12-08T10:52:09.264Z,983.74
2022-12-08T10:53:09.230Z,983.72
2022-12-08T10:54:09.218Z,983.72
2022-12-08T10:55:09.210Z,983.80
2022-12-08T10:56:09.205Z,983.69
2022-12-08T10:57:09.237Z,983.71
2022-12-08T10:58:09.190Z,983.67
2022-12-08T10:59:09.181Z,983.68
2022-12-08T11:00:13.812Z,983.64
2022-12-08T11:01:11.236Z,983.67
2022-12-08T11:02:09.233Z,983.69
2022-12-08T11:03:09.206Z,983.69
2022-12-08T11:04:09.146Z,983.67
2022-12-08T11:05:09.134Z,983.60
2022-12-08T11:06:10.988Z,983.59
2022-12-08T11:07:10.140Z,983.66
2022-12-08T11:08:09.175Z,983.67
2022-12-08T11:09:09.100Z,983.65
2022-12-08T11:10:09.095Z,983.65
2022-12-08T11:11:09.089Z,983.64
2022-12-08T11:12:09.098Z,983.60
2022-12-08T11:13:09.069Z,983.67
2022-12-08T11:14:09.057Z,983.59
2022-12-08T11:15:09.052Z,983.62
2022-12-08T11:16:09.095Z,983.59
2022-12-08T11:17:09.079Z,983.61
2022-12-08T11:18:09.033Z,983.58
2022-12-08T11:19:09.020Z,983.63
2022-12-08T11:20:09.330Z,983.62
2022-12-08T11:21:09.000Z,983.61
2022-12-08T11:22:09.563Z,983.65
2022-12-08T11:23:08.988Z,983.65
2022-12-08T11:24:08.983Z,983.63
2022-12-08T11:25:08.967Z,983.62
2022-12-08T11:26:08.964Z,983.62
2022-12-08T11:27:08.978Z,983.60
2022-12-08T11:28:08.945Z,983.59
2022-12-08T11:29:08.936Z,983.60
2022-12-08T11:30:14.009Z,983.62
2022-12-08T11:31:10.935Z,983.60
2022-12-08T11:32:09.047Z,983.63
2022-12-08T11:33:08.929Z,983.62
2022-12-08T11:34:08.902Z,983.53
2022-12-08T11:35:08.885Z,983.53
2022-12-08T11:36:08.884Z,983.56
2022-12-08T11:37:08.883Z,983.56
2022-12-08T11:38:21.023Z,983.58
2022-12-08T11:39:10.858Z,983.57
2022-12-08T11:40:09.116Z,983.54
2022-12-08T11:41:15.514Z,983.55
2022-12-08T11:42:10.836Z,983.54
2022-12-08T11:43:08.849Z,983.60
2022-12-08T11:44:08.819Z,983.53
2022-12-08T11:45:08.854Z,983.54
2022-12-08T11:46:08.861Z,983.46
2022-12-08T11:47:08.797Z,983.53
2022-12-08T11:48:08.805Z,983.57
2022-12-08T11:49:08.776Z,983.55
2022-12-08T11:50:08.769Z,983.51
2022-12-08T11:51:08.772Z,983.52
2022-12-08T11:52:08.756Z,983.60
2022-12-08T11:53:08.769Z,983.51
2022-12-08T11:54:08.735Z,983.49
2022-12-08T11:55:08.725Z,983.51
2022-12-08T11:56:08.724Z,983.53
2022-12-08T11:57:08.710Z,983.50
2022-12-08T11:58:08.772Z,983.47
2022-12-08T11:59:08.694Z,983.51
2022-12-08T12:00:08.755Z,983.47
2022-12-08T12:01:08.679Z,983.48
2022-12-08T12:02:08.768Z,983.48
2022-12-08T12:03:08.807Z,983.49
2022-12-08T12:04:08.655Z,983.43
2022-12-08T12:05:08.645Z,983.40
2022-12-08T12:06:23.948Z,983.32
2022-12-08T12:07:10.640Z,983.39
2022-12-08T12:08:08.696Z,983.41
2022-12-08T12:09:08.608Z,983.36
2022-12-08T12:10:09.608Z,983.37
2022-12-08T12:11:08.602Z,983.42
2022-12-08T12:12:08.597Z,983.32
2022-12-08T12:13:08.610Z,983.42
2022-12-08T12:14:08.575Z,983.36
2022-12-08T12:15:08.575Z,983.40
2022-12-08T12:16:08.569Z,983.39
2022-12-08T12:17:08.598Z,983.41
2022-12-08T12:18:12.014Z,983.43
2022-12-08T12:19:10.539Z,983.28
2022-12-08T12:20:09.183Z,983.35
2022-12-08T12:21:08.528Z,983.34
2022-12-08T12:22:08.514Z,983.31
2022-12-08T12:23:08.532Z,983.29
2022-12-08T12:24:08.502Z,983.28
2022-12-08T12:25:08.486Z,983.35
2022-12-08T12:26:08.477Z,983.28
2022-12-08T12:27:08.474Z,983.36
2022-12-08T12:28:08.464Z,983.34
2022-12-08T12:29:08.505Z,983.32
2022-12-08T12:30:08.734Z,983.30
2022-12-08T12:31:08.502Z,983.30